createdAt,value
2018-06-01T00:01:25.627Z,28.87
2018-06-01T00:03:53.085Z,27.42
2018-06-01T00:06:20.535Z,29.57
2018-06-01T00:08:47.963Z,30.10
2018-06-01T00:11:15.454Z,28.10
2018-06-01T00:13:42.889Z,29.65
2018-06-01T00:16:10.312Z,28.90
2018-06-01T00:18:38.517Z,28.00
2018-06-01T00:21:05.981Z,28.12
2018-06-01T00:23:33.458Z,29.33
2018-06-01T00:26:00.908Z,31.83
2018-06-01T00:28:28.363Z,31.80
2018-06-01T00:30:55.817Z,29.83
2018-06-01T00:33:23.293Z,29.07
2018-06-01T00:35:50.748Z,31.73
2018-06-01T00:38:18.179Z,31.97
2018-06-01T00:40:45.658Z,29.83
2018-06-01T00:43:13.126Z,30.87
2018-06-01T00:45:40.584Z,31.00
2018-06-01T00:48:08.040Z,33.47
2018-06-01T00:50:35.597Z,31.83
2018-06-01T00:53:03.061Z,31.47
2018-06-01T00:55:30.505Z,32.67
2018-06-01T00:57:57.953Z,31.50
2018-06-01T01:00:25.386Z,33.77
2018-06-01T01:02:52.882Z,32.63
2018-06-01T01:05:20.320Z,31.90
2018-06-01T01:07:47.793Z,33.05
2018-06-01T01:10:15.259Z,32.87
2018-06-01T01:12:42.718Z,29.70
2018-06-01T01:15:10.259Z,30.47
2018-06-01T01:17:37.735Z,29.03
2018-06-01T01:20:05.174Z,31.47
2018-06-01T01:22:32.631Z,32.73
2018-06-01T01:25:00.135Z,29.77
2018-06-01T01:27:27.582Z,37.57
2018-06-01T01:29:55.087Z,35.57
2018-06-01T01:32:23.314Z,40.47
2018-06-01T01:34:51.532Z,38.73
2018-06-01T01:37:30.905Z,38.23
2018-06-01T01:39:59.206Z,33.27
2018-06-01T01:42:26.643Z,28.43
2018-06-01T01:44:54.090Z,26.23
2018-06-01T01:47:21.542Z,28.40
2018-06-01T01:49:53.775Z,35.77
2018-06-01T01:52:21.992Z,54.33
2018-06-01T01:54:49.436Z,43.53
2018-06-01T01:57:16.928Z,44.13
2018-06-01T01:59:44.382Z,41.33
2018-06-01T02:02:11.839Z,45.70
2018-06-01T02:04:39.300Z,37.00
2018-06-01T02:07:06.743Z,38.10
2018-06-01T02:09:34.181Z,47.90
2018-06-01T02:12:01.631Z,44.53
2018-06-01T02:14:29.132Z,72.77
2018-06-01T02:16:56.584Z,102.43
2018-06-01T02:19:24.033Z,53.13
2018-06-01T02:21:51.459Z,88.83
2018-06-01T02:24:19.034Z,57.83
2018-06-01T02:26:46.446Z,62.03
2018-06-01T02:29:14.656Z,227.57
2018-06-01T02:31:42.129Z,100.23
2018-06-01T02:34:10.402Z,128.20
2018-06-01T02:36:37.852Z,117.32
2018-06-01T02:39:06.069Z,167.83
2018-06-01T02:41:33.613Z,75.63
2018-06-01T02:44:01.060Z,116.33
2018-06-01T02:46:28.487Z,51.63
2018-06-01T02:48:55.987Z,50.33
2018-06-01T02:51:23.432Z,265.20
2018-06-01T02:53:50.887Z,468.30
2018-06-01T02:56:18.359Z,508.63
2018-06-01T02:58:45.803Z,190.23
2018-06-01T03:01:13.368Z,253.10
2018-06-01T03:03:40.810Z,368.50
2018-06-01T03:06:08.243Z,198.37
2018-06-01T03:08:35.715Z,85.63
2018-06-01T03:11:03.253Z,227.73
2018-06-01T03:13:30.731Z,167.50
2018-06-01T03:15:58.171Z,197.93
2018-06-01T03:18:25.631Z,193.05
2018-06-01T03:20:53.066Z,235.27
2018-06-01T03:23:20.501Z,203.18
2018-06-01T03:25:48.715Z,162.93
2018-06-01T03:28:16.143Z,367.63
2018-06-01T03:30:44.554Z,116.87
2018-06-01T03:33:12.029Z,71.37
2018-06-01T03:35:39.469Z,57.77
2018-06-01T03:38:06.913Z,67.00
2018-06-01T03:40:34.346Z,82.27
2018-06-01T03:43:02.559Z,56.37
2018-06-01T03:45:29.999Z,57.23
2018-06-01T03:47:57.435Z,60.37
2018-06-01T03:50:25.641Z,183.33
2018-06-01T03:52:53.079Z,62.37
2018-06-01T03:55:20.571Z,284.20
2018-06-01T03:57:48.031Z,401.20
2018-06-01T04:00:15.492Z,73.07
2018-06-01T04:02:42.959Z,180.67
2018-06-01T04:05:10.411Z,197.03
2018-06-01T04:07:37.963Z,109.90
2018-06-01T04:10:05.419Z,158.83
2018-06-01T04:12:32.968Z,254.27
2018-06-01T04:15:00.402Z,296.33
2018-06-01T04:17:27.839Z,271.47
2018-06-01T04:19:56.067Z,138.23
2018-06-01T04:22:23.542Z,315.77
2018-06-01T04:24:50.979Z,372.00
2018-06-01T04:27:18.531Z,275.70
2018-06-01T04:29:46.003Z,417.40
2018-06-01T04:32:13.575Z,247.60
2018-06-01T04:34:41.032Z,247.57
2018-06-01T04:37:08.475Z,307.93
2018-06-01T04:39:35.931Z,179.23
2018-06-01T04:42:03.383Z,270.10
2018-06-01T04:44:30.940Z,201.33
2018-06-01T04:46:58.412Z,125.13
2018-06-01T04:49:25.852Z,123.40
2018-06-01T04:51:53.286Z,163.30
2018-06-01T04:54:20.726Z,255.68
2018-06-01T04:56:48.951Z,260.10
2018-06-01T04:59:16.411Z,303.03
2018-06-01T05:01:43.877Z,338.80
2018-06-01T05:04:11.302Z,156.80
2018-06-01T05:06:38.786Z,123.70
2018-06-01T05:09:06.228Z,235.57
2018-06-01T05:11:33.695Z,325.80
2018-06-01T05:14:01.151Z,383.37
2018-06-01T05:16:28.625Z,285.20
2018-06-01T05:18:56.063Z,373.70
2018-06-01T05:21:23.635Z,229.65
2018-06-01T05:23:51.082Z,136.60
2018-06-01T05:26:18.542Z,160.07
2018-06-01T05:28:45.986Z,140.53
2018-06-01T05:31:13.472Z,117.77
2018-06-01T05:33:40.914Z,116.13
2018-06-01T05:36:08.363Z,128.00
2018-06-01T05:38:35.831Z,104.45
2018-06-01T05:41:03.269Z,109.50
2018-06-01T05:43:30.839Z,76.47
2018-06-01T05:45:58.371Z,83.73
2018-06-01T05:48:25.861Z,85.20
2018-06-01T05:50:53.294Z,82.60
2018-06-01T05:53:20.783Z,76.13
2018-06-01T05:55:48.218Z,78.97
2018-06-01T05:58:15.673Z,80.60
2018-06-01T06:00:43.127Z,76.70
2018-06-01T06:03:10.563Z,78.15
2018-06-01T06:05:38.784Z,66.60
2018-06-01T06:08:06.227Z,73.37
2018-06-01T06:10:33.695Z,66.83
2018-06-01T06:13:01.138Z,74.23
2018-06-01T06:15:28.615Z,73.10
2018-06-01T06:17:56.059Z,73.60
2018-06-01T06:20:23.496Z,73.97
2018-06-01T06:22:50.952Z,71.05
2018-06-01T06:25:18.387Z,70.90
2018-06-01T06:27:46.591Z,71.53
2018-06-01T06:30:14.034Z,76.68
2018-06-01T06:32:42.236Z,72.60
2018-06-01T06:35:09.744Z,70.10
2018-06-01T06:37:37.239Z,62.95
2018-06-01T06:40:04.781Z,70.30
2018-06-01T06:42:32.975Z,66.85
2018-06-01T06:45:00.463Z,69.95
2018-06-01T06:47:27.904Z,68.05
2018-06-01T06:49:55.345Z,64.20
2018-06-01T06:52:22.795Z,69.15
2018-06-01T06:54:50.245Z,69.60
2018-06-01T06:57:18.437Z,65.62
2018-06-01T06:59:45.887Z,68.78
2018-06-01T07:02:13.338Z,71.07
2018-06-01T07:04:40.772Z,66.82
2018-06-01T07:07:09.003Z,64.12
2018-06-01T07:09:36.460Z,66.03
2018-06-01T07:12:03.933Z,68.05
2018-06-01T07:14:31.365Z,65.45
2018-06-01T07:16:58.803Z,70.95
2018-06-01T07:19:26.295Z,62.53
2018-06-01T07:21:53.741Z,67.82
2018-06-01T07:24:21.211Z,66.72
2018-06-01T07:26:48.758Z,69.28
2018-06-01T07:29:16.235Z,67.15
2018-06-01T07:31:43.695Z,65.37
2018-06-01T07:34:11.124Z,62.72
2018-06-01T07:36:38.602Z,65.12
2018-06-01T07:39:06.901Z,63.25
2018-06-01T07:41:34.331Z,68.00
2018-06-01T07:44:01.777Z,61.95
2018-06-01T07:46:29.223Z,60.47
2018-06-01T07:48:56.663Z,58.90
2018-06-01T07:51:24.103Z,60.55
2018-06-01T07:53:51.583Z,57.05
2018-06-01T07:56:19.043Z,53.87
2018-06-01T07:58:46.512Z,50.40
2018-06-01T08:01:14.005Z,49.58
2018-06-01T08:03:41.444Z,44.78
2018-06-01T08:06:08.891Z,44.03
2018-06-01T08:08:36.361Z,41.30
2018-06-01T08:11:03.795Z,39.28
2018-06-01T08:13:31.263Z,38.90
2018-06-01T08:15:58.750Z,36.47
2018-06-01T08:18:26.212Z,36.08
2018-06-01T08:20:53.663Z,37.10
2018-06-01T08:23:21.113Z,34.65
2018-06-01T08:25:48.669Z,34.53
2018-06-01T08:28:16.091Z,33.42
2018-06-01T08:30:44.318Z,32.75
2018-06-01T08:33:11.776Z,30.08
2018-06-01T08:35:39.211Z,30.75
2018-06-01T08:38:06.650Z,30.95
2018-06-01T08:40:34.087Z,31.27
2018-06-01T08:43:02.287Z,32.00
2018-06-01T08:45:29.729Z,30.37
2018-06-01T08:47:57.933Z,28.55
2018-06-01T08:50:25.371Z,29.93
2018-06-01T08:52:52.860Z,26.52
2018-06-01T08:55:20.413Z,25.58
2018-06-01T08:57:47.895Z,25.88
2018-06-01T09:00:15.449Z,27.00
2018-06-01T09:02:42.990Z,28.52
2018-06-01T09:05:10.514Z,25.98
2018-06-01T09:07:38.777Z,28.83
2018-06-01T09:10:07.094Z,29.73
2018-06-01T09:12:34.459Z,27.70
2018-06-01T09:15:01.891Z,29.60
2018-06-01T09:17:29.395Z,25.83
2018-06-01T09:19:56.838Z,26.37
2018-06-01T09:22:24.271Z,30.42
2018-06-01T09:24:51.822Z,28.33
2018-06-01T09:27:19.240Z,26.83
2018-06-01T09:29:46.783Z,27.30
2018-06-01T09:32:14.208Z,27.75
2018-06-01T09:34:41.698Z,28.23
2018-06-01T09:37:09.160Z,24.08
2018-06-01T09:39:36.624Z,23.75
2018-06-01T09:42:04.061Z,22.60
2018-06-01T09:44:31.709Z,22.60
2018-06-01T09:46:59.142Z,21.87
2018-06-01T09:49:26.626Z,20.27
2018-06-01T09:51:54.073Z,18.48
2018-06-01T09:54:21.510Z,17.87
2018-06-01T09:56:48.955Z,19.83
2018-06-01T09:59:17.155Z,16.42
2018-06-01T10:01:44.640Z,16.85
2018-06-01T10:04:12.082Z,16.10
2018-06-01T10:06:39.533Z,17.52
2018-06-01T10:09:07.015Z,18.65
2018-06-01T10:11:34.445Z,18.12
2018-06-01T10:14:01.929Z,20.02
2018-06-01T10:16:29.369Z,19.20
2018-06-01T10:18:56.843Z,14.48
2018-06-01T10:21:24.290Z,16.87
2018-06-01T10:23:51.727Z,13.55
2018-06-01T10:26:19.257Z,14.02
2018-06-01T10:28:46.694Z,14.73
2018-06-01T10:31:14.234Z,14.40
2018-06-01T10:33:41.684Z,14.68
2018-06-01T10:36:09.143Z,12.82
2018-06-01T10:38:36.579Z,16.85
2018-06-01T10:41:04.036Z,12.43
2018-06-01T10:43:31.487Z,15.13
2018-06-01T10:45:58.947Z,14.77
2018-06-01T10:48:26.399Z,16.00
2018-06-01T10:50:53.887Z,13.70
2018-06-01T10:53:21.383Z,11.20
2018-06-01T10:55:48.929Z,12.85
2018-06-01T10:58:16.461Z,13.68
2018-06-01T11:00:43.903Z,13.77
2018-06-01T11:03:11.336Z,17.20
2018-06-01T11:05:39.542Z,17.37
2018-06-01T11:08:06.987Z,16.45
2018-06-01T11:10:34.502Z,16.25
2018-06-01T11:13:01.950Z,15.98
2018-06-01T11:15:29.402Z,17.08
2018-06-01T11:17:56.943Z,18.27
2018-06-01T11:20:24.384Z,20.75
2018-06-01T11:22:51.850Z,20.67
2018-06-01T11:25:19.287Z,20.67
2018-06-01T11:27:46.720Z,22.05
2018-06-01T11:30:14.938Z,27.87
2018-06-01T11:32:42.359Z,30.80
2018-06-01T11:35:10.671Z,28.87
2018-06-01T11:37:38.095Z,29.60
2018-06-01T11:40:06.298Z,27.58
2018-06-01T11:42:33.756Z,27.87
2018-06-01T11:45:01.231Z,31.75
2018-06-01T11:47:28.699Z,30.83
2018-06-01T11:49:56.143Z,32.30
2018-06-01T11:52:23.698Z,31.52
2018-06-01T11:54:51.177Z,32.33
2018-06-01T11:57:18.625Z,33.47
2018-06-01T11:59:46.070Z,33.38
2018-06-01T12:02:13.513Z,40.80
2018-06-01T12:04:41.001Z,35.45
2018-06-01T12:07:08.557Z,35.80
2018-06-01T12:09:36.018Z,34.50
2018-06-01T12:12:03.467Z,36.58
2018-06-01T12:14:30.922Z,36.17
2018-06-01T12:16:58.479Z,42.13
2018-06-01T12:19:25.945Z,52.60
2018-06-01T12:21:53.407Z,55.35
2018-06-01T12:24:20.852Z,55.70
2018-06-01T12:26:48.315Z,63.80
2018-06-01T12:29:15.943Z,69.20
2018-06-01T12:31:43.332Z,56.08
2018-06-01T12:34:10.771Z,66.80
2018-06-01T12:36:38.515Z,61.85
2018-06-01T12:39:06.097Z,45.88
2018-06-01T12:41:33.552Z,40.95
2018-06-01T12:44:01.000Z,63.30
2018-06-01T12:46:29.215Z,48.63
2018-06-01T12:48:56.679Z,41.22
2018-06-01T12:51:24.131Z,54.63
2018-06-01T12:53:51.579Z,63.92
2018-06-01T12:56:19.019Z,68.93
2018-06-01T12:58:46.447Z,61.83
2018-06-01T13:01:14.694Z,51.85
2018-06-01T13:03:42.130Z,48.63
2018-06-01T13:06:09.571Z,44.13
2018-06-01T13:08:37.020Z,71.10
2018-06-01T13:11:05.231Z,64.70
2018-06-01T13:13:32.683Z,70.50
2018-06-01T13:16:00.133Z,69.50
2018-06-01T13:18:27.595Z,51.72
2018-06-01T13:20:55.079Z,53.17
2018-06-01T13:23:22.562Z,47.22
2018-06-01T13:25:50.086Z,42.53
2018-06-01T13:28:17.567Z,47.92
2018-06-01T13:30:45.093Z,35.30
2018-06-01T13:33:12.527Z,45.67
2018-06-01T13:35:40.015Z,43.05
2018-06-01T13:38:07.575Z,40.55
2018-06-01T13:40:35.031Z,39.28
2018-06-01T13:43:02.475Z,39.47
2018-06-01T13:45:29.943Z,38.47
2018-06-01T13:47:57.395Z,41.60
2018-06-01T13:50:24.876Z,41.22
2018-06-01T13:52:52.327Z,35.20
2018-06-01T13:55:19.941Z,33.55
2018-06-01T13:57:47.460Z,30.92
2018-06-01T14:00:14.914Z,34.42
2018-06-01T14:02:42.695Z,37.03
2018-06-01T14:05:10.329Z,35.17
2018-06-01T14:07:37.837Z,38.03
2018-06-01T14:10:06.049Z,42.08
2018-06-01T14:12:33.731Z,47.55
2018-06-01T14:15:01.297Z,41.42
2018-06-01T14:17:28.736Z,50.47
2018-06-01T14:19:56.277Z,43.75
2018-06-01T14:22:23.756Z,42.75
2018-06-01T14:24:51.196Z,45.58
2018-06-01T14:27:18.676Z,42.42
2018-06-01T14:29:46.263Z,38.05
2018-06-01T14:32:13.683Z,33.83
2018-06-01T14:34:41.125Z,37.00
2018-06-01T14:37:08.564Z,32.95
2018-06-01T14:39:36.051Z,31.73
2018-06-01T14:42:03.516Z,27.62
2018-06-01T14:44:30.943Z,27.58
2018-06-01T14:46:58.484Z,29.65
2018-06-01T14:49:25.881Z,25.75
2018-06-01T14:51:53.373Z,28.52
2018-06-01T14:54:20.864Z,28.73
2018-06-01T14:56:49.197Z,27.05
2018-06-01T14:59:16.672Z,27.50
2018-06-01T15:01:44.169Z,30.12
2018-06-01T15:04:11.579Z,28.10
2018-06-01T15:06:39.111Z,27.40
2018-06-01T15:09:06.588Z,28.98
2018-06-01T15:11:34.019Z,29.55
2018-06-01T15:14:01.574Z,29.85
2018-06-01T15:16:28.936Z,28.25
2018-06-01T15:18:56.378Z,29.35
2018-06-01T15:21:23.836Z,30.75
2018-06-01T15:23:51.295Z,33.10
2018-06-01T15:26:18.715Z,32.67
2018-06-01T15:28:47.037Z,33.90
2018-06-01T15:31:14.485Z,31.85
2018-06-01T15:33:41.935Z,30.90
2018-06-01T15:36:09.383Z,29.23
2018-06-01T15:38:36.977Z,33.10
2018-06-01T15:41:04.514Z,32.22
2018-06-01T15:43:31.860Z,32.25
2018-06-01T15:45:59.343Z,29.70
2018-06-01T15:48:26.803Z,29.48
2018-06-01T15:50:54.247Z,29.12
2018-06-01T15:53:21.701Z,30.83
2018-06-01T15:55:49.163Z,29.87
2018-06-01T15:58:16.650Z,30.02
2018-06-01T16:00:44.078Z,29.45
2018-06-01T16:03:11.534Z,28.77
2018-06-01T16:05:38.966Z,30.98
2018-06-01T16:08:07.171Z,29.95
2018-06-01T16:10:34.624Z,30.92
2018-06-01T16:13:02.108Z,28.75
2018-06-01T16:15:29.539Z,34.37
2018-06-01T16:17:57.011Z,30.80
2018-06-01T16:20:24.491Z,31.60
2018-06-01T16:22:51.947Z,32.80
2018-06-01T16:25:19.391Z,29.77
2018-06-01T16:27:46.834Z,30.55
2018-06-01T16:30:14.284Z,33.60
2018-06-01T16:32:41.727Z,29.45
2018-06-01T16:35:09.223Z,34.05
2018-06-01T16:37:36.680Z,30.33
2018-06-01T16:40:04.121Z,29.37
2018-06-01T16:42:31.574Z,28.87
2018-06-01T16:44:59.028Z,36.28
2018-06-01T16:47:26.507Z,33.75
2018-06-01T16:49:53.963Z,30.48
2018-06-01T16:52:21.409Z,30.03
2018-06-01T16:54:48.844Z,33.77
2018-06-01T16:57:16.335Z,30.50
2018-06-01T16:59:43.771Z,33.42
2018-06-01T17:02:11.215Z,32.50
2018-06-01T17:04:38.665Z,33.15
2018-06-01T17:07:06.904Z,29.33
2018-06-01T17:09:34.332Z,24.83
2018-06-01T17:12:01.776Z,24.77
2018-06-01T17:14:29.220Z,24.47
2018-06-01T17:16:56.657Z,25.33
2018-06-01T17:19:24.859Z,24.63
2018-06-01T17:21:52.347Z,26.63
2018-06-01T17:24:19.802Z,28.17
2018-06-01T17:26:47.267Z,30.20
2018-06-01T17:29:14.718Z,28.80
2018-06-01T17:31:42.176Z,29.03
2018-06-01T17:34:09.712Z,28.87
2018-06-01T17:36:37.160Z,26.87
2018-06-01T17:39:05.383Z,31.10
2018-06-01T17:41:32.844Z,34.73
2018-06-01T17:44:00.258Z,29.50
2018-06-01T17:46:27.727Z,33.33
2018-06-01T17:48:55.171Z,30.03
2018-06-01T17:51:22.639Z,31.40
2018-06-01T17:53:50.095Z,30.10
2018-06-01T17:56:17.555Z,31.23
2018-06-01T17:58:45.011Z,30.87
2018-06-01T18:01:12.476Z,33.57
2018-06-01T18:03:39.909Z,33.63
2018-06-01T18:06:07.335Z,29.13
2018-06-01T18:08:35.540Z,30.77
2018-06-01T18:11:02.977Z,28.30
2018-06-01T18:13:31.299Z,30.43
2018-06-01T18:15:58.753Z,26.23
2018-06-01T18:18:26.209Z,30.10
2018-06-01T18:20:53.659Z,35.00
2018-06-01T18:23:21.151Z,31.80
2018-06-01T18:25:48.688Z,32.37
2018-06-01T18:28:16.114Z,37.90
2018-06-01T18:30:43.552Z,39.42
2018-06-01T18:33:11.767Z,36.53
2018-06-01T18:35:39.205Z,37.47
2018-06-01T18:38:06.699Z,39.67
2018-06-01T18:40:34.239Z,35.83
2018-06-01T18:43:01.709Z,35.57
2018-06-01T18:45:29.163Z,37.10
2018-06-01T18:47:56.614Z,39.13
2018-06-01T18:50:24.080Z,38.13
2018-06-01T18:52:51.535Z,38.10
2018-06-01T18:55:19.003Z,33.07
2018-06-01T18:57:46.443Z,36.27
2018-06-01T19:00:13.875Z,33.07
2018-06-01T19:02:41.319Z,36.70
2018-06-01T19:05:09.543Z,34.60
2018-06-01T19:07:36.992Z,39.03
2018-06-01T19:10:04.464Z,32.20
2018-06-01T19:12:31.899Z,35.83
2018-06-01T19:14:59.331Z,33.97
2018-06-01T19:17:26.826Z,41.17
2018-06-01T19:19:54.297Z,37.58
2018-06-01T19:22:21.748Z,33.67
2018-06-01T19:24:49.188Z,36.97
2018-06-01T19:27:16.673Z,35.23
2018-06-01T19:29:44.110Z,35.43
2018-06-01T19:32:11.579Z,37.23
2018-06-01T19:34:39.015Z,34.97
2018-06-01T19:37:06.490Z,35.30
2018-06-01T19:39:33.918Z,36.67
2018-06-01T19:42:01.399Z,39.73
2018-06-01T19:44:28.968Z,37.23
2018-06-01T19:46:56.426Z,35.97
2018-06-01T19:49:23.875Z,35.67
2018-06-01T19:51:51.317Z,37.97
2018-06-01T19:54:18.751Z,40.60
2018-06-01T19:56:46.194Z,33.67
2018-06-01T19:59:14.423Z,35.20
2018-06-01T20:01:41.855Z,33.87
2018-06-01T20:04:09.307Z,35.10
2018-06-01T20:06:36.796Z,31.40
2018-06-01T20:09:04.355Z,33.85
2018-06-01T20:11:31.791Z,30.83
2018-06-01T20:13:59.256Z,30.43
2018-06-01T20:16:26.691Z,30.43
2018-06-01T20:18:54.124Z,30.53
2018-06-01T20:21:22.390Z,31.53
2018-06-01T20:23:49.826Z,27.00
2018-06-01T20:26:17.261Z,30.13
2018-06-01T20:28:44.699Z,30.20
2018-06-01T20:31:12.194Z,34.97
2018-06-01T20:33:40.643Z,34.40
2018-06-01T20:36:08.084Z,34.13
2018-06-01T20:38:36.291Z,34.40
2018-06-01T20:41:03.748Z,37.07
2018-06-01T20:43:31.208Z,38.23
2018-06-01T20:45:58.656Z,36.20
2018-06-01T20:48:26.083Z,35.13
2018-06-01T20:50:54.280Z,34.60
2018-06-01T20:53:21.763Z,37.33
2018-06-01T20:55:49.207Z,36.27
2018-06-01T20:58:16.673Z,37.33
2018-06-01T21:00:44.140Z,40.57
2018-06-01T21:03:11.599Z,39.07
2018-06-01T21:05:39.049Z,42.30
2018-06-01T21:08:06.503Z,37.90
2018-06-01T21:10:33.999Z,36.93
2018-06-01T21:13:01.519Z,38.03
2018-06-01T21:15:28.926Z,39.80
2018-06-01T21:17:57.154Z,35.97
2018-06-01T21:20:24.584Z,33.00
2018-06-01T21:22:52.262Z,36.60
2018-06-01T21:25:19.690Z,31.90
2018-06-01T21:27:47.879Z,32.83
2018-06-01T21:30:15.312Z,31.57
2018-06-01T21:32:43.558Z,33.17
2018-06-01T21:35:11.010Z,32.00
2018-06-01T21:37:38.464Z,30.73
2018-06-01T21:40:05.888Z,29.23
2018-06-01T21:42:33.376Z,33.40
2018-06-01T21:45:00.818Z,31.30
2018-06-01T21:47:28.280Z,35.20
2018-06-01T21:49:55.744Z,32.87
2018-06-01T21:52:23.184Z,31.20
2018-06-01T21:54:50.665Z,31.67
2018-06-01T21:57:18.118Z,34.13
2018-06-01T21:59:45.671Z,34.63
2018-06-01T22:02:13.218Z,31.57
2018-06-01T22:04:40.691Z,31.83
2018-06-01T22:07:08.132Z,35.87
2018-06-01T22:09:35.562Z,36.30
2018-06-01T22:12:03.795Z,37.43
2018-06-01T22:14:31.348Z,38.60
2018-06-01T22:16:58.811Z,38.73
2018-06-01T22:19:26.259Z,39.63
2018-06-01T22:21:53.815Z,40.70
2018-06-01T22:24:21.259Z,40.40
2018-06-01T22:26:48.699Z,42.93
2018-06-01T22:29:16.139Z,43.53
2018-06-01T22:31:44.360Z,47.83
2018-06-01T22:34:11.789Z,48.10
2018-06-01T22:36:39.255Z,50.60
2018-06-01T22:39:06.848Z,51.20
2018-06-01T22:41:34.380Z,54.00
2018-06-01T22:44:01.791Z,55.40
2018-06-01T22:46:30.010Z,60.20
2018-06-01T22:48:57.431Z,61.43
2018-06-01T22:51:25.744Z,57.40
2018-06-01T22:53:53.201Z,58.03
2018-06-01T22:56:20.659Z,63.73
2018-06-01T22:58:48.085Z,66.43
2018-06-01T23:01:16.278Z,66.33
2018-06-01T23:03:43.711Z,69.03
2018-06-01T23:06:12.065Z,75.67
2018-06-01T23:08:39.499Z,85.30
2018-06-01T23:11:07.045Z,86.63
2018-06-01T23:13:34.501Z,87.47
2018-06-01T23:16:01.993Z,95.80
2018-06-01T23:18:29.438Z,88.83
2018-06-01T23:20:56.903Z,104.03
2018-06-01T23:23:24.452Z,102.23
2018-06-01T23:25:51.941Z,101.27
2018-06-01T23:28:19.389Z,108.63
2018-06-01T23:30:46.835Z,103.83
2018-06-01T23:33:14.287Z,118.13
2018-06-01T23:35:41.734Z,127.95
2018-06-01T23:38:09.167Z,119.40
2018-06-01T23:40:36.598Z,134.70
2018-06-01T23:43:06.482Z,128.90
2018-06-01T23:45:33.984Z,144.47
2018-06-01T23:48:01.447Z,151.70
2018-06-01T23:50:29.639Z,147.67
2018-06-01T23:52:57.135Z,148.67
2018-06-01T23:55:24.587Z,132.43
2018-06-01T23:57:52.035Z,147.03
